Time;durP1;ratioP1;P1;durP2;ratioP2;P2;SDS_P1;SDS_P2;PMS_P1;PMS_P2;Temp;Humidity;BMP_temperature;BMP_pressure;BME280_temperature;BME280_humidity;BME280_pressure;Samples;Min_cycle;Max_cycle;Signal;HPM_P1;HPM_P2
2023/11/11 00:01:13;;;;;;;9.53;1.87;;;;;;;;;;5022860;28;20614;-68
2023/11/11 00:03:42;;;;;;;6.40;1.43;;;;;;;;;;5028225;28;20566;-68
2023/11/11 00:06:11;;;;;;;5.67;1.47;;;;;;;;;;5032452;28;20652;-68
2023/11/11 00:08:39;;;;;;;4.70;1.60;;;;;;;;;;5018896;28;20235;-68
2023/11/11 00:11:08;;;;;;;3.33;1.73;;;;;;;;;;5018293;28;20259;-68
2023/11/11 00:13:36;;;;;;;2.80;1.60;;;;;;;;;;5018601;28;20242;-68
2023/11/11 00:16:06;;;;;;;5.00;1.60;;;;;;;;;;5018617;28;20232;-68
2023/11/11 00:18:36;;;;;;;4.60;1.57;;;;;;;;;;5017843;28;20295;-68
2023/11/11 00:21:05;;;;;;;8.07;1.80;;;;;;;;;;5018311;28;20602;-68
2023/11/11 00:23:37;;;;;;;3.83;1.90;;;;;;;;;;5018372;28;20611;-68
2023/11/11 00:26:05;;;;;;;2.57;1.60;;;;;;;;;;5018245;28;20212;-69
2023/11/11 00:28:40;;;;;;;3.37;1.37;;;;;;;;;;5023375;28;20227;-68
2023/11/11 00:31:10;;;;;;;3.87;1.80;;;;;;;;;;5037083;28;20222;-68
2023/11/11 00:33:39;;;;;;;5.43;1.73;;;;;;;;;;5024406;28;20208;-68
2023/11/11 00:36:08;;;;;;;3.47;1.60;;;;;;;;;;5036660;28;20686;-68
2023/11/11 00:38:36;;;;;;;5.97;1.70;;;;;;;;;;5028200;28;20204;-68
2023/11/11 00:41:05;;;;;;;4.10;1.70;;;;;;;;;;5017420;28;20311;-68
2023/11/11 00:43:33;;;;;;;4.07;1.80;;;;;;;;;;5018240;28;20291;-68
2023/11/11 00:46:01;;;;;;;4.83;1.93;;;;;;;;;;5017672;28;20204;-68
2023/11/11 00:48:31;;;;;;;5.03;1.60;;;;;;;;;;5017209;28;20232;-68
2023/11/11 00:50:59;;;;;;;2.70;1.40;;;;;;;;;;5030763;28;20638;-69
2023/11/11 00:53:28;;;;;;;4.50;1.40;;;;;;;;;;5037821;28;20235;-69
2023/11/11 00:55:57;;;;;;;3.63;1.50;;;;;;;;;;5024083;28;20220;-68
2023/11/11 00:58:25;;;;;;;4.10;1.70;;;;;;;;;;5021137;28;20204;-69
2023/11/11 01:00:53;;;;;;;3.50;1.27;;;;;;;;;;5017303;28;20259;-68
2023/11/11 01:03:22;;;;;;;2.37;1.33;;;;;;;;;;5017233;28;20235;-69
2023/11/11 01:05:52;;;;;;;4.77;1.23;;;;;;;;;;5017310;28;20208;-68
2023/11/11 01:08:20;;;;;;;3.13;1.43;;;;;;;;;;5017157;28;20295;-68
2023/11/11 01:10:49;;;;;;;6.43;1.70;;;;;;;;;;5017050;28;20283;-69
2023/11/11 01:13:19;;;;;;;3.87;1.33;;;;;;;;;;5018905;28;20223;-69
2023/11/11 01:15:51;;;;;;;5.27;1.60;;;;;;;;;;5029684;28;20223;-69
2023/11/11 01:18:19;;;;;;;3.37;1.57;;;;;;;;;;5026126;28;20586;-68
2023/11/11 01:20:48;;;;;;;3.90;1.70;;;;;;;;;;5036584;28;20208;-69
2023/11/11 01:23:18;;;;;;;8.33;1.73;;;;;;;;;;5036768;28;20212;-68
2023/11/11 01:25:46;;;;;;;4.63;1.60;;;;;;;;;;5036513;28;20204;-68
2023/11/11 01:28:15;;;;;;;3.90;1.30;;;;;;;;;;5037331;28;20295;-68
2023/11/11 01:30:44;;;;;;;6.13;2.20;;;;;;;;;;5025992;28;20204;-68
2023/11/11 01:33:13;;;;;;;2.50;1.70;;;;;;;;;;5024952;28;20201;-68
2023/11/11 01:35:42;;;;;;;3.73;1.63;;;;;;;;;;5035291;28;20232;-69
2023/11/11 01:38:12;;;;;;;8.50;1.60;;;;;;;;;;5040583;28;20204;-68
2023/11/11 01:40:42;;;;;;;6.03;1.80;;;;;;;;;;5020987;28;20682;-68
2023/11/11 01:43:12;;;;;;;3.97;1.43;;;;;;;;;;5039653;28;20210;-67
2023/11/11 01:45:41;;;;;;;1.40;1.30;;;;;;;;;;5032434;28;20746;-65
2023/11/11 01:48:09;;;;;;;8.00;1.67;;;;;;;;;;5039766;28;20663;-65
2023/11/11 01:50:38;;;;;;;5.90;1.93;;;;;;;;;;5040096;28;20210;-65
2023/11/11 01:53:06;;;;;;;5.50;1.83;;;;;;;;;;5034279;28;20219;-65
2023/11/11 01:55:35;;;;;;;4.27;1.77;;;;;;;;;;5039634;28;20241;-65
2023/11/11 01:58:05;;;;;;;8.30;1.60;;;;;;;;;;5040810;28;20294;-65
2023/11/11 02:00:35;;;;;;;4.50;1.40;;;;;;;;;;5032317;28;20199;-67
2023/11/11 02:03:04;;;;;;;3.73;1.90;;;;;;;;;;5029723;28;20228;-68
2023/11/11 02:05:34;;;;;;;7.20;1.87;;;;;;;;;;5020932;28;20200;-68
2023/11/11 02:08:03;;;;;;;3.57;1.60;;;;;;;;;;5023899;28;20619;-67
2023/11/11 02:10:32;;;;;;;2.97;1.40;;;;;;;;;;5020898;28;20215;-68
2023/11/11 02:13:01;;;;;;;5.90;1.40;;;;;;;;;;5020989;28;20220;-69
2023/11/11 02:15:30;;;;;;;4.27;2.03;;;;;;;;;;5029252;28;20338;-69
2023/11/11 02:18:00;;;;;;;4.00;1.67;;;;;;;;;;5020861;28;20208;-69
2023/11/11 02:20:33;;;;;;;3.63;1.60;;;;;;;;;;5020643;28;20263;-68
2023/11/11 02:23:02;;;;;;;4.67;2.10;;;;;;;;;;5020609;28;20228;-69
2023/11/11 02:25:32;;;;;;;4.97;1.53;;;;;;;;;;5020256;28;20656;-68
2023/11/11 02:28:00;;;;;;;6.83;2.13;;;;;;;;;;5020836;28;20240;-68
2023/11/11 02:30:29;;;;;;;9.47;1.80;;;;;;;;;;5019340;28;20283;-68
2023/11/11 02:32:57;;;;;;;5.10;1.77;;;;;;;;;;5019287;28;20232;-67
2023/11/11 02:35:25;;;;;;;4.30;1.63;;;;;;;;;;5029303;28;20613;-69
2023/11/11 02:37:54;;;;;;;4.00;1.90;;;;;;;;;;5039296;28;20278;-68
2023/11/11 02:40:22;;;;;;;5.20;1.77;;;;;;;;;;5037451;28;20215;-69
2023/11/11 02:42:52;;;;;;;4.03;1.60;;;;;;;;;;5018973;28;20307;-69
2023/11/11 02:45:20;;;;;;;3.83;1.53;;;;;;;;;;5035235;28;20203;-68
2023/11/11 02:47:48;;;;;;;4.63;1.70;;;;;;;;;;5020337;28;20346;-68
2023/11/11 02:50:16;;;;;;;5.07;1.43;;;;;;;;;;5019753;28;20216;-68
2023/11/11 02:52:45;;;;;;;3.47;1.80;;;;;;;;;;5035751;28;20223;-69
2023/11/11 02:55:13;;;;;;;5.00;1.80;;;;;;;;;;5027144;28;20569;-65
2023/11/11 02:57:41;;;;;;;4.03;1.90;;;;;;;;;;5039597;28;20785;-66
2023/11/11 03:00:11;;;;;;;3.97;1.87;;;;;;;;;;5033686;28;20231;-65
2023/11/11 03:02:40;;;;;;;3.97;2.10;;;;;;;;;;5018541;28;20231;-65
2023/11/11 03:05:09;;;;;;;5.50;2.43;;;;;;;;;;5019177;28;20565;-66
2023/11/11 03:07:37;;;;;;;5.27;2.23;;;;;;;;;;5019823;28;20669;-66
2023/11/11 03:10:06;;;;;;;6.67;2.13;;;;;;;;;;5019366;28;20205;-65
2023/11/11 03:12:34;;;;;;;3.50;2.10;;;;;;;;;;5019035;28;20238;-67
2023/11/11 03:15:02;;;;;;;3.47;2.07;;;;;;;;;;5023120;28;20667;-67
2023/11/11 03:17:32;;;;;;;7.00;2.17;;;;;;;;;;5020236;28;20590;-65
2023/11/11 03:20:01;;;;;;;4.37;2.37;;;;;;;;;;5025791;28;20199;-68
2023/11/11 03:22:29;;;;;;;4.87;2.77;;;;;;;;;;5038338;28;20310;-66
2023/11/11 03:24:57;;;;;;;6.20;2.00;;;;;;;;;;5033816;28;20235;-65
2023/11/11 03:27:26;;;;;;;4.83;1.87;;;;;;;;;;5019308;28;20207;-67
2023/11/11 03:29:54;;;;;;;5.50;1.70;;;;;;;;;;5027850;28;20203;-66
2023/11/11 03:32:23;;;;;;;4.30;1.80;;;;;;;;;;5038406;28;20319;-65
2023/11/11 03:34:53;;;;;;;4.67;2.20;;;;;;;;;;5038175;28;20209;-64
2023/11/11 03:37:21;;;;;;;8.40;2.37;;;;;;;;;;5037748;28;20708;-65
2023/11/11 03:39:49;;;;;;;5.57;2.07;;;;;;;;;;5037812;28;20267;-65
2023/11/11 03:42:18;;;;;;;4.80;1.80;;;;;;;;;;5025554;28;20282;-65
2023/11/11 03:44:46;;;;;;;7.57;1.93;;;;;;;;;;5022447;28;20274;-65
2023/11/11 03:47:14;;;;;;;3.63;1.97;;;;;;;;;;5032206;28;20261;-64
2023/11/11 03:49:42;;;;;;;4.37;1.50;;;;;;;;;;5034068;28;20204;-65
2023/11/11 03:52:12;;;;;;;7.40;2.17;;;;;;;;;;5018398;28;20560;-65
2023/11/11 03:54:40;;;;;;;3.73;1.60;;;;;;;;;;5028595;28;20205;-64
2023/11/11 03:57:09;;;;;;;3.77;1.80;;;;;;;;;;5019026;28;20232;-65
2023/11/11 03:59:37;;;;;;;2.90;1.40;;;;;;;;;;5018484;28;20263;-65
2023/11/11 04:02:05;;;;;;;2.93;1.87;;;;;;;;;;5026773;28;20251;-65
2023/11/11 04:04:34;;;;;;;4.97;1.70;;;;;;;;;;5037620;28;20204;-65
2023/11/11 04:07:02;;;;;;;2.43;1.67;;;;;;;;;;5038709;28;20211;-66
2023/11/11 04:09:34;;;;;;;4.33;2.20;;;;;;;;;;5025514;28;20208;-65
2023/11/11 04:12:03;;;;;;;5.30;2.10;;;;;;;;;;5025800;28;20231;-65
2023/11/11 04:14:31;;;;;;;10.20;1.97;;;;;;;;;;5027886;28;20196;-65
2023/11/11 04:16:59;;;;;;;6.03;2.00;;;;;;;;;;5018736;28;20319;-64
2023/11/11 04:19:28;;;;;;;8.37;2.50;;;;;;;;;;5018351;28;20212;-64
2023/11/11 04:21:56;;;;;;;11.67;3.07;;;;;;;;;;5018406;28;20767;-64
2023/11/11 04:24:24;;;;;;;11.03;2.83;;;;;;;;;;5018402;28;20212;-64
2023/11/11 04:26:54;;;;;;;11.60;2.27;;;;;;;;;;5020440;28;20203;-64
2023/11/11 04:29:22;;;;;;;6.13;2.17;;;;;;;;;;5037024;28;20203;-65
2023/11/11 04:31:50;;;;;;;7.27;2.20;;;;;;;;;;5037264;28;20255;-64
2023/11/11 04:34:19;;;;;;;5.87;2.23;;;;;;;;;;5036839;28;20207;-65
2023/11/11 04:36:48;;;;;;;6.27;2.10;;;;;;;;;;5036799;28;20262;-65
2023/11/11 04:39:16;;;;;;;3.93;1.90;;;;;;;;;;5036791;28;20257;-66
2023/11/11 04:41:44;;;;;;;5.30;1.87;;;;;;;;;;5027655;28;20220;-67
2023/11/11 04:44:15;;;;;;;7.43;1.97;;;;;;;;;;5020569;28;20620;-65
2023/11/11 04:46:43;;;;;;;5.03;2.07;;;;;;;;;;5024883;28;20282;-64
2023/11/11 04:49:11;;;;;;;10.10;2.17;;;;;;;;;;5027946;28;20223;-64
2023/11/11 04:51:39;;;;;;;5.30;2.23;;;;;;;;;;5018096;28;20289;-65
2023/11/11 04:54:08;;;;;;;8.57;2.07;;;;;;;;;;5018738;28;20212;-64
2023/11/11 04:56:36;;;;;;;4.60;1.80;;;;;;;;;;5023384;28;20282;-64
2023/11/11 04:59:05;;;;;;;4.50;1.93;;;;;;;;;;5037912;28;20250;-64
2023/11/11 05:01:37;;;;;;;4.37;1.77;;;;;;;;;;5017636;28;20278;-63
2023/11/11 05:04:05;;;;;;;1.90;1.37;;;;;;;;;;5016936;28;20208;-64
2023/11/11 05:06:36;;;;;;;6.03;1.53;;;;;;;;;;5030803;28;20287;-65
2023/11/11 05:09:07;;;;;;;4.57;1.67;;;;;;;;;;5017778;28;20216;-64
2023/11/11 05:11:35;;;;;;;4.23;1.70;;;;;;;;;;5017749;28;20291;-66
2023/11/11 05:14:07;;;;;;;4.30;1.33;;;;;;;;;;5017448;28;20242;-65
2023/11/11 05:16:40;;;;;;;8.07;1.97;;;;;;;;;;5021275;28;20239;-64
2023/11/11 05:19:08;;;;;;;7.10;2.00;;;;;;;;;;5032223;28;20686;-64
2023/11/11 05:21:37;;;;;;;3.83;1.60;;;;;;;;;;5029677;28;20223;-64
2023/11/11 05:24:06;;;;;;;8.57;2.37;;;;;;;;;;5037118;28;20207;-64
2023/11/11 05:26:34;;;;;;;3.70;1.67;;;;;;;;;;5017022;28;20243;-63
2023/11/11 05:29:03;;;;;;;4.33;2.40;;;;;;;;;;5015669;28;20563;-63
2023/11/11 05:31:31;;;;;;;5.40;2.80;;;;;;;;;;5026957;28;20290;-63
2023/11/11 05:34:01;;;;;;;5.30;1.53;;;;;;;;;;5037113;28;20683;-63
2023/11/11 05:36:32;;;;;;;1.70;1.53;;;;;;;;;;5015176;28;20247;-63
2023/11/11 05:39:00;;;;;;;3.93;1.33;;;;;;;;;;5016845;28;20224;-63
2023/11/11 05:41:29;;;;;;;4.63;1.40;;;;;;;;;;5024472;28;20605;-64
2023/11/11 05:43:58;;;;;;;3.50;1.57;;;;;;;;;;5017898;28;20743;-63
2023/11/11 05:46:26;;;;;;;3.30;1.70;;;;;;;;;;5036407;28;20286;-64
2023/11/11 05:48:54;;;;;;;2.87;1.60;;;;;;;;;;5037084;28;20295;-64
2023/11/11 05:51:25;;;;;;;7.13;2.07;;;;;;;;;;5032810;28;20293;-64
2023/11/11 05:53:57;;;;;;;6.13;1.97;;;;;;;;;;5031741;28;20202;-64
2023/11/11 05:56:25;;;;;;;5.23;1.63;;;;;;;;;;5026350;28;20265;-64
2023/11/11 05:58:58;;;;;;;3.40;1.90;;;;;;;;;;5020448;28;20576;-64
2023/11/11 06:01:27;;;;;;;4.27;1.90;;;;;;;;;;5016834;28;20236;-64
2023/11/11 06:03:55;;;;;;;4.13;1.60;;;;;;;;;;5017212;28;20551;-64
2023/11/11 06:06:25;;;;;;;6.47;1.83;;;;;;;;;;5035740;28;20287;-64
2023/11/11 06:08:53;;;;;;;7.43;1.57;;;;;;;;;;5037291;28;20210;-64
2023/11/11 06:11:22;;;;;;;4.03;1.63;;;;;;;;;;5020536;28;20260;-64
2023/11/11 06:13:50;;;;;;;6.07;1.60;;;;;;;;;;5036376;28;20211;-64
2023/11/11 06:16:18;;;;;;;6.63;1.60;;;;;;;;;;5022815;28;20287;-64
2023/11/11 06:18:47;;;;;;;5.50;2.20;;;;;;;;;;5020483;28;20661;-64
2023/11/11 06:21:15;;;;;;;3.00;1.70;;;;;;;;;;5020667;28;20680;-63
2023/11/11 06:23:45;;;;;;;2.70;1.70;;;;;;;;;;5016890;28;20581;-64
2023/11/11 06:26:13;;;;;;;5.17;1.70;;;;;;;;;;5040206;28;20219;-64
2023/11/11 06:28:42;;;;;;;3.73;2.17;;;;;;;;;;5029876;28;20196;-64
2023/11/11 06:31:10;;;;;;;5.43;2.23;;;;;;;;;;5040507;28;20319;-64
2023/11/11 06:33:38;;;;;;;5.20;1.93;;;;;;;;;;5040001;28;20215;-64
2023/11/11 06:36:07;;;;;;;7.83;2.27;;;;;;;;;;5040283;28;20258;-64
2023/11/11 06:38:36;;;;;;;7.53;2.47;;;;;;;;;;5040200;28;20227;-64
2023/11/11 06:41:05;;;;;;;4.60;1.60;;;;;;;;;;5036515;28;20230;-63
2023/11/11 06:43:34;;;;;;;5.70;2.00;;;;;;;;;;5020123;28;20735;-64
2023/11/11 06:46:03;;;;;;;3.37;2.17;;;;;;;;;;5026908;28;20235;-64
2023/11/11 06:48:31;;;;;;;3.10;1.57;;;;;;;;;;5019956;28;20743;-64
2023/11/11 06:51:00;;;;;;;3.80;2.17;;;;;;;;;;5020330;28;20291;-63
2023/11/11 06:53:28;;;;;;;4.03;1.80;;;;;;;;;;5020251;28;20208;-63
2023/11/11 06:55:56;;;;;;;4.57;1.80;;;;;;;;;;5020053;28;20218;-63
2023/11/11 06:58:26;;;;;;;4.83;1.77;;;;;;;;;;5019819;28;20228;-63
2023/11/11 07:00:55;;;;;;;2.73;1.87;;;;;;;;;;5019928;28;20571;-63
2023/11/11 07:03:23;;;;;;;3.37;1.57;;;;;;;;;;5029432;28;20204;-63
2023/11/11 07:05:51;;;;;;;5.03;1.80;;;;;;;;;;5020008;28;20300;-64
2023/11/11 07:08:20;;;;;;;5.00;1.83;;;;;;;;;;5020117;28;20240;-64
2023/11/11 07:10:49;;;;;;;4.07;1.63;;;;;;;;;;5019476;28;20214;-63
2023/11/11 07:13:17;;;;;;;3.67;1.57;;;;;;;;;;5019713;28;20749;-64
2023/11/11 07:15:47;;;;;;;5.23;2.17;;;;;;;;;;5027276;28;20223;-64
2023/11/11 07:18:16;;;;;;;8.97;2.37;;;;;;;;;;5019784;28;20208;-63
2023/11/11 07:20:44;;;;;;;5.40;2.07;;;;;;;;;;5028861;28;20208;-64
2023/11/11 07:23:14;;;;;;;10.67;2.27;;;;;;;;;;5038130;28;20214;-64
2023/11/11 07:25:45;;;;;;;6.57;2.40;;;;;;;;;;5028312;28;20223;-64
2023/11/11 07:28:15;;;;;;;3.03;1.60;;;;;;;;;;5031842;28;20210;-64
2023/11/11 07:30:43;;;;;;;9.60;2.70;;;;;;;;;;5026489;28;20737;-64
2023/11/11 07:33:13;;;;;;;8.90;2.37;;;;;;;;;;5038983;28;20590;-69
2023/11/11 07:35:42;;;;;;;6.67;2.40;;;;;;;;;;5037949;28;20292;-69
2023/11/11 07:38:11;;;;;;;5.43;2.17;;;;;;;;;;5023812;28;20243;-68
2023/11/11 07:40:40;;;;;;;12.70;2.37;;;;;;;;;;5021448;28;20255;-69
2023/11/11 07:43:32;;;;;;;4.40;2.20;;;;;;;;;;5031551;28;20250;-69
2023/11/11 07:46:01;;;;;;;5.77;2.00;;;;;;;;;;5012935;28;20204;-69
2023/11/11 07:48:33;;;;;;;5.43;2.23;;;;;;;;;;5018816;28;20243;-68
2023/11/11 07:51:02;;;;;;;5.17;2.10;;;;;;;;;;5018564;28;20272;-69
2023/11/11 07:53:30;;;;;;;3.10;2.13;;;;;;;;;;5018904;28;20675;-69
2023/11/11 07:56:02;;;;;;;7.27;3.13;;;;;;;;;;5018812;28;20243;-69
2023/11/11 07:58:31;;;;;;;5.30;2.13;;;;;;;;;;5019169;28;20238;-69
2023/11/11 08:01:03;;;;;;;7.57;3.03;;;;;;;;;;5019069;28;20215;-69
2023/11/11 08:03:33;;;;;;;9.70;2.50;;;;;;;;;;5018670;28;20208;-69
2023/11/11 08:06:02;;;;;;;10.17;2.53;;;;;;;;;;5018986;28;20271;-68
2023/11/11 08:08:30;;;;;;;8.00;2.53;;;;;;;;;;5018765;28;20275;-69
2023/11/11 08:10:58;;;;;;;4.43;2.27;;;;;;;;;;5018224;28;20683;-68
2023/11/11 08:13:28;;;;;;;11.43;2.30;;;;;;;;;;5018771;28;20216;-68
2023/11/11 08:15:56;;;;;;;7.70;2.87;;;;;;;;;;5018762;28;20204;-68
2023/11/11 08:18:24;;;;;;;5.33;2.50;;;;;;;;;;5018392;28;20726;-68
2023/11/11 08:21:07;;;;;;;6.23;2.43;;;;;;;;;;5018646;28;20236;-68
2023/11/11 08:23:35;;;;;;;8.77;2.63;;;;;;;;;;5018268;28;20208;-69
2023/11/11 08:26:03;;;;;;;5.37;2.50;;;;;;;;;;5018246;28;20208;-62
2023/11/11 08:28:31;;;;;;;6.30;2.37;;;;;;;;;;5018774;28;20292;-63
2023/11/11 08:31:00;;;;;;;8.03;2.37;;;;;;;;;;5018181;28;20216;-64
2023/11/11 08:33:31;;;;;;;6.50;2.53;;;;;;;;;;5018459;28;20204;-64
2023/11/11 08:36:00;;;;;;;5.67;2.20;;;;;;;;;;5035077;28;20771;-66
2023/11/11 08:38:30;;;;;;;10.10;2.27;;;;;;;;;;5037974;28;20207;-64
2023/11/11 08:40:58;;;;;;;6.50;2.40;;;;;;;;;;5022186;28;20320;-64
2023/11/11 08:43:26;;;;;;;5.40;2.37;;;;;;;;;;5026246;28;20686;-65
2023/11/11 08:45:55;;;;;;;5.37;2.27;;;;;;;;;;5037870;28;20207;-64
2023/11/11 08:48:23;;;;;;;3.53;2.20;;;;;;;;;;5036793;28;20200;-65
2023/11/11 08:50:53;;;;;;;7.47;2.60;;;;;;;;;;5036757;28;20200;-65
2023/11/11 08:53:21;;;;;;;3.53;1.97;;;;;;;;;;5036806;28;20242;-68
2023/11/11 08:55:51;;;;;;;10.80;3.20;;;;;;;;;;5036026;28;20204;-66
2023/11/11 08:58:19;;;;;;;2.97;2.00;;;;;;;;;;5019696;28;20709;-68
2023/11/11 09:00:47;;;;;;;7.27;2.80;;;;;;;;;;5018286;28;20220;-69
2023/11/11 09:03:17;;;;;;;7.33;2.20;;;;;;;;;;5021114;28;20567;-68
2023/11/11 09:05:46;;;;;;;9.30;2.47;;;;;;;;;;5029895;28;20205;-69
2023/11/11 09:08:14;;;;;;;7.67;4.20;;;;;;;;;;5017966;28;20235;-67
2023/11/11 09:10:42;;;;;;;7.47;2.47;;;;;;;;;;5017664;28;20267;-68
2023/11/11 09:13:13;;;;;;;3.70;2.37;;;;;;;;;;5017763;28;20208;-67
2023/11/11 09:15:41;;;;;;;9.33;2.97;;;;;;;;;;5021776;28;20661;-69
2023/11/11 09:18:11;;;;;;;5.10;2.93;;;;;;;;;;5022898;28;20208;-68
2023/11/11 09:20:40;;;;;;;5.70;2.53;;;;;;;;;;5035052;28;20238;-69
2023/11/11 09:23:08;;;;;;;7.33;2.47;;;;;;;;;;5037592;28;20292;-69
2023/11/11 09:25:37;;;;;;;8.17;2.53;;;;;;;;;;5037234;28;20634;-69
2023/11/11 09:28:07;;;;;;;6.43;2.73;;;;;;;;;;5037298;28;20249;-69
2023/11/11 09:30:36;;;;;;;6.10;2.70;;;;;;;;;;5037644;28;20207;-69
2023/11/11 09:33:05;;;;;;;5.27;3.03;;;;;;;;;;5037353;28;20227;-69
2023/11/11 09:35:33;;;;;;;8.33;3.13;;;;;;;;;;5036645;28;20217;-69
2023/11/11 09:38:03;;;;;;;5.50;2.57;;;;;;;;;;5017522;28;20240;-69
2023/11/11 09:40:32;;;;;;;5.10;2.37;;;;;;;;;;5017244;28;20695;-69
2023/11/11 09:43:00;;;;;;;8.10;2.47;;;;;;;;;;5020412;28;20600;-67
2023/11/11 09:45:28;;;;;;;6.57;2.60;;;;;;;;;;5023788;28;20211;-69
2023/11/11 09:48:00;;;;;;;9.67;2.63;;;;;;;;;;5037067;28;20689;-69
2023/11/11 09:50:29;;;;;;;7.37;2.20;;;;;;;;;;5037680;28;20214;-68
2023/11/11 09:52:58;;;;;;;3.97;2.13;;;;;;;;;;5036881;28;20255;-67
2023/11/11 09:55:28;;;;;;;12.70;2.87;;;;;;;;;;5021096;28;20212;-66
2023/11/11 09:57:58;;;;;;;7.63;3.37;;;;;;;;;;5021020;28;20683;-66
2023/11/11 10:00:28;;;;;;;6.27;3.00;;;;;;;;;;5034060;28;20223;-66
2023/11/11 10:03:00;;;;;;;6.10;2.73;;;;;;;;;;5020624;28;20649;-67
2023/11/11 10:05:30;;;;;;;4.17;2.20;;;;;;;;;;5021388;28;20291;-66
2023/11/11 10:07:58;;;;;;;6.20;2.57;;;;;;;;;;5021124;28;20216;-66
2023/11/11 10:10:27;;;;;;;7.37;3.10;;;;;;;;;;5027880;28;20571;-66
2023/11/11 10:12:56;;;;;;;10.83;2.80;;;;;;;;;;5040750;28;20234;-66
2023/11/11 10:15:25;;;;;;;4.67;2.17;;;;;;;;;;5033811;28;20275;-67
2023/11/11 10:17:53;;;;;;;5.93;1.90;;;;;;;;;;5020580;28;20573;-65
2023/11/11 10:20:27;;;;;;;8.70;2.40;;;;;;;;;;5020564;28;20733;-65
2023/11/11 10:22:57;;;;;;;5.27;2.23;;;;;;;;;;5020440;28;20315;-66
2023/11/11 10:25:25;;;;;;;5.80;2.07;;;;;;;;;;5020728;28;20239;-66
2023/11/11 10:27:54;;;;;;;4.37;1.80;;;;;;;;;;5020832;28;20230;-69
2023/11/11 10:30:24;;;;;;;7.83;2.00;;;;;;;;;;5020503;28;20207;-69
2023/11/11 10:32:53;;;;;;;7.97;2.30;;;;;;;;;;5020372;28;20239;-69
2023/11/11 10:35:24;;;;;;;5.73;2.00;;;;;;;;;;5020320;28;20208;-70
2023/11/11 10:37:54;;;;;;;4.93;1.77;;;;;;;;;;5020739;28;20208;-69
2023/11/11 10:40:24;;;;;;;7.87;2.07;;;;;;;;;;5020100;28;20703;-69
2023/11/11 10:42:52;;;;;;;22.67;14.73;;;;;;;;;;5019916;28;20231;-69
2023/11/11 10:45:20;;;;;;;3.83;1.63;;;;;;;;;;5020061;28;20207;-69
2023/11/11 10:47:49;;;;;;;8.13;1.87;;;;;;;;;;5020199;28;20240;-69
2023/11/11 10:50:17;;;;;;;5.40;1.73;;;;;;;;;;5020574;28;20235;-69
2023/11/11 10:52:48;;;;;;;6.57;1.60;;;;;;;;;;5020058;28;20227;-69
2023/11/11 10:55:16;;;;;;;5.80;1.60;;;;;;;;;;5020079;28;20215;-70
2023/11/11 10:57:45;;;;;;;4.97;1.50;;;;;;;;;;5012338;28;20216;-69
2023/11/11 11:00:19;;;;;;;4.13;1.70;;;;;;;;;;5020199;28;20291;-69
2023/11/11 11:02:50;;;;;;;5.80;1.63;;;;;;;;;;5029129;28;20226;-70
2023/11/11 11:05:23;;;;;;;3.80;1.40;;;;;;;;;;5026809;28;20620;-67
2023/11/11 11:07:56;;;;;;;1.83;1.10;;;;;;;;;;5038708;28;20211;-69
2023/11/11 11:10:31;;;;;;;3.93;1.37;;;;;;;;;;5029158;28;20220;-67
2023/11/11 11:13:02;;;;;;;7.37;1.53;;;;;;;;;;5019820;28;20238;-67
2023/11/11 11:15:38;;;;;;;3.23;1.40;;;;;;;;;;5028605;28;20212;-69
2023/11/11 11:18:10;;;;;;;5.33;1.53;;;;;;;;;;5033092;28;20215;-70
2023/11/11 11:20:42;;;;;;;2.80;1.47;;;;;;;;;;5019652;28;20278;-69
2023/11/11 11:23:12;;;;;;;3.87;1.60;;;;;;;;;;5019861;28;20208;-69
2023/11/11 11:25:41;;;;;;;4.47;1.50;;;;;;;;;;5019539;28;20214;-69
2023/11/11 11:28:16;;;;;;;5.90;1.73;;;;;;;;;;5019586;28;20575;-69
2023/11/11 11:30:46;;;;;;;3.67;1.97;;;;;;;;;;5019504;28;20207;-69
2023/11/11 11:33:14;;;;;;;4.77;1.50;;;;;;;;;;5019256;28;20311;-70
2023/11/11 11:35:44;;;;;;;3.80;1.43;;;;;;;;;;5028641;28;20236;-67
2023/11/11 11:38:14;;;;;;;6.77;1.60;;;;;;;;;;5039145;28;20734;-67
2023/11/11 11:40:43;;;;;;;4.57;1.70;;;;;;;;;;5038250;28;20688;-67
2023/11/11 11:43:12;;;;;;;5.37;1.70;;;;;;;;;;5019162;28;20208;-68
2023/11/11 11:45:40;;;;;;;5.07;1.77;;;;;;;;;;5027069;28;20210;-67
2023/11/11 11:48:09;;;;;;;4.37;1.30;;;;;;;;;;5038989;28;20210;-67
2023/11/11 11:50:37;;;;;;;3.07;1.70;;;;;;;;;;5039110;28;20209;-67
2023/11/11 11:53:06;;;;;;;5.93;1.50;;;;;;;;;;5025251;28;20321;-68
2023/11/11 11:55:40;;;;;;;2.17;1.50;;;;;;;;;;5019069;28;20204;-67
2023/11/11 11:58:08;;;;;;;3.80;1.40;;;;;;;;;;5019051;28;20214;-67
2023/11/11 12:00:38;;;;;;;5.67;1.43;;;;;;;;;;5019135;28;20208;-68
2023/11/11 12:03:07;;;;;;;4.97;1.90;;;;;;;;;;5018471;28;20323;-67
2023/11/11 12:05:35;;;;;;;2.17;1.00;;;;;;;;;;5018795;28;20208;-67
2023/11/11 12:08:05;;;;;;;1.90;1.20;;;;;;;;;;5021283;28;20215;-67
2023/11/11 12:10:46;;;;;;;5.57;1.60;;;;;;;;;;5035118;28;20213;-67
2023/11/11 12:13:15;;;;;;;5.93;1.90;;;;;;;;;;5038506;28;20648;-67
2023/11/11 12:15:51;;;;;;;4.70;2.13;;;;;;;;;;5026621;28;20235;-68
2023/11/11 12:18:19;;;;;;;3.60;1.43;;;;;;;;;;5018234;28;20287;-68
2023/11/11 12:20:48;;;;;;;2.43;1.67;;;;;;;;;;5018117;28;20210;-67
2023/11/11 12:23:18;;;;;;;2.83;1.43;;;;;;;;;;5018122;28;20634;-67
2023/11/11 12:25:48;;;;;;;3.50;1.40;;;;;;;;;;5012266;28;20290;-67
2023/11/11 12:28:16;;;;;;;5.33;1.30;;;;;;;;;;5037952;28;20208;-67
2023/11/11 12:30:45;;;;;;;4.27;1.27;;;;;;;;;;5029715;28;20579;-68
2023/11/11 12:33:13;;;;;;;4.03;1.57;;;;;;;;;;5021440;28;20201;-68
2023/11/11 12:35:42;;;;;;;3.20;1.20;;;;;;;;;;5017838;28;20263;-67
2023/11/11 12:38:25;;;;;;;13.37;4.23;;;;;;;;;;5017746;28;20216;-67
2023/11/11 12:41:00;;;;;;;3.03;1.63;;;;;;;;;;5019838;28;20214;-67
2023/11/11 12:43:29;;;;;;;3.60;1.40;;;;;;;;;;5028480;28;20226;-67
2023/11/11 12:45:59;;;;;;;3.00;1.00;;;;;;;;;;5024467;28;20290;-66
2023/11/11 12:48:29;;;;;;;7.23;1.40;;;;;;;;;;5035250;28;20211;-69
2023/11/11 12:50:58;;;;;;;2.10;1.20;;;;;;;;;;5017963;28;20276;-66
2023/11/11 12:53:26;;;;;;;3.87;1.67;;;;;;;;;;5017697;28;20254;-70
2023/11/11 12:56:06;;;;;;;5.37;1.70;;;;;;;;;;5017558;28;20208;-69
2023/11/11 12:58:35;;;;;;;2.43;1.30;;;;;;;;;;5017832;28;20207;-68
2023/11/11 13:01:04;;;;;;;5.70;1.43;;;;;;;;;;5029774;28;20262;-69
2023/11/11 13:03:35;;;;;;;5.63;1.40;;;;;;;;;;5037361;28;20230;-69
2023/11/11 13:06:05;;;;;;;3.20;1.30;;;;;;;;;;5030897;28;20578;-68
2023/11/11 13:08:34;;;;;;;4.00;1.20;;;;;;;;;;5017860;28;20204;-70
2023/11/11 13:11:03;;;;;;;3.27;1.40;;;;;;;;;;5017424;28;20208;-72
2023/11/11 13:13:34;;;;;;;3.90;1.00;;;;;;;;;;5017186;28;20204;-70
2023/11/11 13:16:02;;;;;;;4.33;1.90;;;;;;;;;;5020701;28;20227;-71
2023/11/11 13:18:31;;;;;;;6.97;1.40;;;;;;;;;;5013848;28;20204;-67
2023/11/11 13:21:00;;;;;;;6.70;2.00;;;;;;;;;;5021564;28;20560;-69
2023/11/11 13:23:29;;;;;;;3.13;1.10;;;;;;;;;;5027885;28;20227;-66
2023/11/11 13:25:59;;;;;;;6.77;1.20;;;;;;;;;;5026712;28;20678;-66
2023/11/11 13:28:28;;;;;;;1.83;1.10;;;;;;;;;;5031151;28;20211;-66
2023/11/11 13:30:58;;;;;;;3.60;0.83;;;;;;;;;;5040065;28;20296;-68
2023/11/11 13:33:26;;;;;;;3.40;0.90;;;;;;;;;;5030168;28;20203;-66
2023/11/11 13:35:56;;;;;;;2.20;1.30;;;;;;;;;;5041050;28;20231;-67
2023/11/11 13:38:27;;;;;;;1.93;1.00;;;;;;;;;;5036653;28;20211;-66
2023/11/11 13:40:55;;;;;;;4.33;1.10;;;;;;;;;;5023695;28;20294;-66
2023/11/11 13:43:24;;;;;;;3.97;1.00;;;;;;;;;;5025034;28;20243;-66
2023/11/11 13:45:52;;;;;;;3.10;1.00;;;;;;;;;;5021415;28;20204;-66
2023/11/11 13:48:22;;;;;;;2.63;0.97;;;;;;;;;;5021440;28;20212;-66
2023/11/11 13:50:51;;;;;;;1.60;0.90;;;;;;;;;;5024802;28;20231;-66
2023/11/11 13:53:20;;;;;;;3.13;1.10;;;;;;;;;;5030697;28;20195;-66
2023/11/11 13:55:49;;;;;;;2.20;1.00;;;;;;;;;;5030359;28;20287;-67
2023/11/11 13:58:17;;;;;;;7.30;1.40;;;;;;;;;;5029946;28;20230;-67
2023/11/11 14:00:46;;;;;;;6.43;1.30;;;;;;;;;;5029251;28;20685;-67
2023/11/11 14:03:17;;;;;;;5.37;1.20;;;;;;;;;;5031039;28;20310;-68
2023/11/11 14:05:47;;;;;;;5.40;1.40;;;;;;;;;;5041081;28;20218;-69
2023/11/11 14:08:17;;;;;;;2.73;1.60;;;;;;;;;;5034203;28;20643;-69
2023/11/11 14:10:46;;;;;;;4.47;1.27;;;;;;;;;;5021305;28;20671;-67
2023/11/11 14:13:14;;;;;;;2.67;1.40;;;;;;;;;;5023431;28;20660;-67
2023/11/11 14:15:54;;;;;;;6.00;1.30;;;;;;;;;;5032163;28;20572;-67
2023/11/11 14:18:23;;;;;;;1.53;1.07;;;;;;;;;;5020492;28;20211;-68
2023/11/11 14:20:59;;;;;;;2.47;1.20;;;;;;;;;;5024819;28;20208;-68
2023/11/11 14:23:28;;;;;;;5.33;1.20;;;;;;;;;;5020578;28;20235;-69
2023/11/11 14:25:56;;;;;;;2.13;1.00;;;;;;;;;;5021086;28;20219;-68
2023/11/11 14:28:25;;;;;;;5.10;1.30;;;;;;;;;;5020529;28;20232;-69
2023/11/11 14:30:54;;;;;;;6.43;1.27;;;;;;;;;;5020433;28;20219;-68
2023/11/11 14:33:22;;;;;;;5.57;1.60;;;;;;;;;;5022929;28;20291;-70
2023/11/11 14:35:51;;;;;;;3.47;1.57;;;;;;;;;;5020501;28;20236;-70
2023/11/11 14:38:20;;;;;;;5.33;1.80;;;;;;;;;;5019403;28;20292;-69
2023/11/11 14:40:49;;;;;;;2.97;1.47;;;;;;;;;;5021770;28;20267;-70
2023/11/11 14:43:29;;;;;;;4.50;0.97;;;;;;;;;;5022836;28;20231;-70
2023/11/11 14:45:59;;;;;;;3.93;1.60;;;;;;;;;;5020356;28;20208;-70
2023/11/11 14:48:34;;;;;;;5.80;1.50;;;;;;;;;;5027628;28;20207;-69
2023/11/11 14:51:03;;;;;;;3.63;1.10;;;;;;;;;;5039894;28;20666;-69
2023/11/11 14:53:33;;;;;;;5.03;1.80;;;;;;;;;;5039769;28;20621;-69
2023/11/11 14:56:01;;;;;;;2.63;1.50;;;;;;;;;;5039920;28;20235;-69